FWI57Q LFPO-SOCA
Flight info
| Callsign | FWI57Q |
|---|---|
| Flight time | N/A |
| Altitude | 27000 |
| Route | LGL UT176 ROLEN/N0485F370 UZ15 DIDAK DCT AKEMO/N0490F390 DCT LAPEX/M084F380 DCT SEPAL DCT 45N015W 40N024W/M084F400 35N030W 30N036W 25N040W 20N044W DCT ROHPL/N0482F400 DCT MOTSI DCT MEBLI DCT REKIM REKIM1E |
| Aircraft | A359/H-SDE2E3GHIJ3J4J5LM1ORWXY/LB1D1 |
Departure
| Time | 2026-05-05 10:48 |
|---|---|
| Airport | Paris-Orly Airport (LFPO) |
Arrival
| Time | N/A |
|---|---|
| Airport | Cayenne – Félix Eboué Airport (SOCA) |
| Time | Latitude | Longitude | Altitude | Speed | Heading |
|---|---|---|---|---|---|
| 2026-05-05 09:40 | 48.72810 | 2.37331 | 303 ft | 0 kts | 341° |
| 2026-05-05 10:34 | 48.72809 | 2.37332 | 305 ft | 2 kts | 341° |
| 2026-05-05 10:35 | 48.72785 | 2.37344 | 305 ft | 4 kts | 341° |
| 2026-05-05 10:35 | 48.72765 | 2.37354 | 304 ft | 4 kts | 338° |
| 2026-05-05 10:35 | 48.72744 | 2.37375 | 304 ft | 4 kts | 294° |
| 2026-05-05 10:35 | 48.72742 | 2.37408 | 303 ft | 4 kts | 254° |
| 2026-05-05 10:36 | 48.72749 | 2.37447 | 303 ft | 4 kts | 254° |
| 2026-05-05 10:36 | 48.72751 | 2.37455 | 304 ft | 0 kts | 254° |
| 2026-05-05 10:40 | 48.72750 | 2.37452 | 304 ft | 2 kts | 254° |
| 2026-05-05 10:40 | 48.72735 | 2.37369 | 303 ft | 14 kts | 254° |
| 2026-05-05 10:40 | 48.72700 | 2.37174 | 304 ft | 21 kts | 254° |
| 2026-05-05 10:40 | 48.72658 | 2.36951 | 305 ft | 23 kts | 254° |
| 2026-05-05 10:41 | 48.72610 | 2.36720 | 305 ft | 23 kts | 251° |
| 2026-05-05 10:41 | 48.72498 | 2.36580 | 307 ft | 21 kts | 227° |
| 2026-05-05 10:41 | 48.72448 | 2.36373 | 304 ft | 21 kts | 255° |
| 2026-05-05 10:41 | 48.72408 | 2.36150 | 306 ft | 22 kts | 255° |
| 2026-05-05 10:42 | 48.72325 | 2.35703 | 304 ft | 21 kts | 253° |
| 2026-05-05 10:42 | 48.72234 | 2.35601 | 306 ft | 17 kts | 181° |
| 2026-05-05 10:42 | 48.72123 | 2.35646 | 306 ft | 13 kts | 162° |
| 2026-05-05 10:43 | 48.72091 | 2.35663 | 307 ft | 0 kts | 157° |
| 2026-05-05 10:46 | 48.72090 | 2.35665 | 307 ft | 2 kts | 157° |
| 2026-05-05 10:46 | 48.72048 | 2.35716 | 307 ft | 13 kts | 130° |
| 2026-05-05 10:46 | 48.71991 | 2.35865 | 307 ft | 17 kts | 113° |
| 2026-05-05 10:47 | 48.71972 | 2.36037 | 306 ft | 17 kts | 72° |
| 2026-05-05 10:47 | 48.72007 | 2.36212 | 307 ft | 22 kts | 74° |
| 2026-05-05 10:47 | 48.72091 | 2.36667 | 309 ft | 75 kts | 74° |
| 2026-05-05 10:47 | 48.72208 | 2.37301 | 303 ft | 113 kts | 74° |
| 2026-05-05 10:48 | 48.72548 | 2.39214 | 637 ft | 145 kts | 71° |
| 2026-05-05 10:48 | 48.72807 | 2.40683 | 1234 ft | 148 kts | 71° |
| 2026-05-05 10:48 | 48.72975 | 2.41608 | 1557 ft | 155 kts | 73° |
| 2026-05-05 10:48 | 48.73127 | 2.42420 | 1731 ft | 163 kts | 72° |
| 2026-05-05 10:49 | 48.73461 | 2.44152 | 2061 ft | 179 kts | 72° |
| 2026-05-05 10:49 | 48.73831 | 2.46028 | 2536 ft | 192 kts | 71° |
| 2026-05-05 10:49 | 48.74027 | 2.48129 | 2974 ft | 208 kts | 85° |
| 2026-05-05 10:49 | 48.74085 | 2.50421 | 3362 ft | 227 kts | 86° |
| 2026-05-05 10:50 | 48.74170 | 2.52854 | 3843 ft | 241 kts | 84° |
| 2026-05-05 10:50 | 48.74254 | 2.55405 | 4654 ft | 242 kts | 87° |
| 2026-05-05 10:50 | 48.73844 | 2.57924 | 5386 ft | 251 kts | 117° |
| 2026-05-05 10:50 | 48.72655 | 2.59815 | 6182 ft | 258 kts | 145° |
| 2026-05-05 10:51 | 48.70941 | 2.60781 | 6946 ft | 270 kts | 170° |
| 2026-05-05 10:51 | 48.69063 | 2.60348 | 7700 ft | 284 kts | 204° |
| 2026-05-05 10:51 | 48.67584 | 2.58376 | 8615 ft | 288 kts | 236° |
| 2026-05-05 10:51 | 48.66894 | 2.55521 | 9516 ft | 293 kts | 265° |
| 2026-05-05 10:52 | 48.66797 | 2.52439 | 10306 ft | 298 kts | 269° |
| 2026-05-05 10:52 | 48.66745 | 2.49205 | 10806 ft | 313 kts | 269° |
| 2026-05-05 10:52 | 48.66694 | 2.45863 | 11375 ft | 323 kts | 269° |
| 2026-05-05 10:52 | 48.66612 | 2.42410 | 11837 ft | 335 kts | 268° |
| 2026-05-05 10:53 | 48.66189 | 2.38908 | 12350 ft | 345 kts | 247° |
| 2026-05-05 10:53 | 48.65503 | 2.36724 | 12651 ft | 351 kts | 244° |
| 2026-05-05 10:53 | 48.64219 | 2.32066 | 13261 ft | 366 kts | 249° |
| 2026-05-05 10:53 | 48.63352 | 2.28480 | 13841 ft | 371 kts | 253° |
| 2026-05-05 10:54 | 48.62907 | 2.24627 | 14438 ft | 375 kts | 270° |
| 2026-05-05 10:54 | 48.63208 | 2.20696 | 14964 ft | 380 kts | 279° |
| 2026-05-05 10:54 | 48.63650 | 2.16733 | 15518 ft | 384 kts | 279° |
| 2026-05-05 10:54 | 48.64067 | 2.12761 | 16279 ft | 382 kts | 278° |
| 2026-05-05 10:55 | 48.64199 | 2.11417 | 16567 ft | 380 kts | 278° |
| 2026-05-05 10:55 | 48.64755 | 2.06089 | 17298 ft | 389 kts | 278° |
| 2026-05-05 10:55 | 48.65328 | 2.00700 | 18090 ft | 394 kts | 278° |
| 2026-05-05 10:55 | 48.65761 | 1.96606 | 18751 ft | 393 kts | 278° |
| 2026-05-05 10:56 | 48.66045 | 1.93907 | 19218 ft | 393 kts | 277° |
| 2026-05-05 10:56 | 48.66454 | 1.89765 | 19514 ft | 403 kts | 277° |
| 2026-05-05 10:56 | 48.66971 | 1.84146 | 20235 ft | 407 kts | 277° |
| 2026-05-05 10:56 | 48.67379 | 1.79894 | 20783 ft | 410 kts | 277° |
| 2026-05-05 10:57 | 48.67791 | 1.75613 | 21318 ft | 413 kts | 277° |
| 2026-05-05 10:57 | 48.68209 | 1.71295 | 21882 ft | 415 kts | 277° |
| 2026-05-05 10:57 | 48.68489 | 1.68349 | 22138 ft | 421 kts | 277° |
| 2026-05-05 10:57 | 48.68910 | 1.63938 | 22619 ft | 426 kts | 277° |
| 2026-05-05 10:58 | 48.69334 | 1.59521 | 23211 ft | 428 kts | 277° |
| 2026-05-05 10:58 | 48.69759 | 1.55084 | 23734 ft | 431 kts | 277° |
| 2026-05-05 10:58 | 48.70189 | 1.50580 | 24184 ft | 434 kts | 277° |
| 2026-05-05 10:58 | 48.70615 | 1.46094 | 24588 ft | 437 kts | 277° |
| 2026-05-05 10:59 | 48.71048 | 1.41517 | 25049 ft | 440 kts | 277° |
| 2026-05-05 10:59 | 48.71482 | 1.36917 | 25472 ft | 443 kts | 277° |
| 2026-05-05 10:59 | 48.71917 | 1.32285 | 25896 ft | 446 kts | 277° |
| 2026-05-05 10:59 | 48.72354 | 1.27620 | 26318 ft | 449 kts | 277° |
| 2026-05-05 11:00 | 48.72792 | 1.22912 | 26700 ft | 453 kts | 276° |
| 2026-05-05 11:00 | 48.73231 | 1.18180 | 27121 ft | 456 kts | 276° |
| 2026-05-05 11:00 | 48.73661 | 1.13518 | 27532 ft | 459 kts | 276° |
| 2026-05-05 11:00 | 48.74090 | 1.08848 | 27930 ft | 462 kts | 276° |
| 2026-05-05 11:01 | 48.74533 | 1.03999 | 28352 ft | 465 kts | 276° |
| 2026-05-05 11:01 | 48.74976 | 0.99127 | 28726 ft | 468 kts | 276° |
| 2026-05-05 11:01 | 48.75421 | 0.94211 | 29101 ft | 471 kts | 276° |
| 2026-05-05 11:01 | 48.75834 | 0.89635 | 29451 ft | 474 kts | 276° |
| 2026-05-05 11:02 | 48.76279 | 0.84677 | 29884 ft | 476 kts | 276° |
| 2026-05-05 11:02 | 48.76723 | 0.79700 | 30291 ft | 476 kts | 275° |
| 2026-05-05 11:02 | 48.77166 | 0.74714 | 30640 ft | 478 kts | 275° |
| 2026-05-05 11:02 | 48.77603 | 0.69766 | 30965 ft | 480 kts | 275° |
| 2026-05-05 11:03 | 48.77998 | 0.64764 | 31283 ft | 480 kts | 271° |
| 2026-05-05 11:03 | 48.78009 | 0.59709 | 31576 ft | 478 kts | 262° |
| 2026-05-05 11:03 | 48.77469 | 0.54766 | 31887 ft | 474 kts | 252° |
| 2026-05-05 11:03 | 48.76392 | 0.50066 | 32194 ft | 471 kts | 242° |
| 2026-05-05 11:04 | 48.74831 | 0.45768 | 32494 ft | 467 kts | 232° |
| 2026-05-05 11:04 | 48.72879 | 0.41851 | 32778 ft | 466 kts | 227° |
| 2026-05-05 11:04 | 48.70808 | 0.38074 | 33062 ft | 467 kts | 226° |
| 2026-05-05 11:04 | 48.68688 | 0.34343 | 33364 ft | 467 kts | 225° |
| 2026-05-05 11:05 | 48.66557 | 0.30638 | 33772 ft | 465 kts | 225° |
| 2026-05-05 11:05 | 48.64438 | 0.26953 | 34142 ft | 464 kts | 225° |
| 2026-05-05 11:05 | 48.62318 | 0.23255 | 34283 ft | 467 kts | 225° |
| 2026-05-05 11:05 | 48.60212 | 0.19566 | 34481 ft | 468 kts | 226° |
| 2026-05-05 11:06 | 48.58011 | 0.15955 | 34705 ft | 466 kts | 221° |
| 2026-05-05 11:06 | 48.55618 | 0.12656 | 34902 ft | 465 kts | 218° |
| 2026-05-05 11:06 | 48.53175 | 0.09443 | 35110 ft | 466 kts | 218° |
| 2026-05-05 11:06 | 48.50739 | 0.06315 | 35316 ft | 466 kts | 217° |
| 2026-05-05 11:07 | 48.48257 | 0.03163 | 35520 ft | 467 kts | 217° |
| 2026-05-05 11:07 | 48.45771 | 0.00021 | 35715 ft | 468 kts | 217° |
| 2026-05-05 11:07 | 48.43276 | -0.03131 | 35892 ft | 468 kts | 217° |
| 2026-05-05 11:07 | 48.40774 | -0.06295 | 36011 ft | 471 kts | 218° |
| 2026-05-05 11:08 | 48.38261 | -0.09473 | 36181 ft | 472 kts | 218° |
| 2026-05-05 11:08 | 48.35747 | -0.12654 | 36376 ft | 472 kts | 218° |
| 2026-05-05 11:08 | 48.33230 | -0.15838 | 36568 ft | 473 kts | 218° |
| 2026-05-05 11:08 | 48.30704 | -0.19029 | 36731 ft | 473 kts | 218° |
| 2026-05-05 11:09 | 48.28214 | -0.22256 | 36847 ft | 476 kts | 221° |
| 2026-05-05 11:09 | 48.24049 | -0.29998 | 36862 ft | 479 kts | 236° |
| 2026-05-05 11:10 | 48.20608 | -0.38579 | 36872 ft | 481 kts | 238° |
| 2026-05-05 11:10 | 48.17268 | -0.47280 | 36876 ft | 482 kts | 238° |
| 2026-05-05 11:11 | 48.13932 | -0.55915 | 36882 ft | 482 kts | 238° |
| 2026-05-05 11:11 | 48.10548 | -0.64571 | 36882 ft | 482 kts | 237° |
| 2026-05-05 11:12 | 48.07152 | -0.73202 | 36885 ft | 482 kts | 237° |
| 2026-05-05 11:12 | 48.03748 | -0.81820 | 36883 ft | 482 kts | 237° |
| 2026-05-05 11:13 | 48.00338 | -0.90431 | 36887 ft | 482 kts | 237° |
| 2026-05-05 11:13 | 47.96906 | -0.99068 | 36884 ft | 483 kts | 237° |
| 2026-05-05 11:14 | 47.93473 | -1.07684 | 36879 ft | 484 kts | 237° |
| 2026-05-05 11:14 | 47.90029 | -1.16299 | 36874 ft | 483 kts | 237° |
| 2026-05-05 11:15 | 47.86579 | -1.24902 | 36871 ft | 484 kts | 237° |
| 2026-05-05 11:15 | 47.83123 | -1.33490 | 36882 ft | 484 kts | 237° |
| 2026-05-05 11:16 | 47.79657 | -1.42076 | 36889 ft | 484 kts | 237° |
| 2026-05-05 11:16 | 47.76183 | -1.50652 | 36885 ft | 485 kts | 237° |
| 2026-05-05 11:17 | 47.72696 | -1.59239 | 36893 ft | 485 kts | 237° |
| 2026-05-05 11:17 | 47.69200 | -1.67817 | 36891 ft | 485 kts | 237° |
| 2026-05-05 11:18 | 47.65698 | -1.76384 | 36899 ft | 486 kts | 237° |
| 2026-05-05 11:18 | 47.62185 | -1.84950 | 36898 ft | 486 kts | 237° |
| 2026-05-05 11:19 | 47.58664 | -1.93509 | 36904 ft | 486 kts | 237° |
| 2026-05-05 11:19 | 47.55132 | -2.02067 | 36906 ft | 486 kts | 237° |
| 2026-05-05 11:20 | 47.51621 | -2.10548 | 36899 ft | 486 kts | 237° |
| 2026-05-05 11:20 | 47.48083 | -2.19066 | 36921 ft | 487 kts | 237° |
| 2026-05-05 11:21 | 47.44531 | -2.27594 | 36921 ft | 487 kts | 237° |
| 2026-05-05 11:21 | 47.40973 | -2.36108 | 36922 ft | 487 kts | 237° |
| 2026-05-05 11:22 | 47.37404 | -2.44622 | 36905 ft | 487 kts | 237° |
| 2026-05-05 11:22 | 47.33836 | -2.53107 | 36916 ft | 487 kts | 236° |
| 2026-05-05 11:23 | 47.30253 | -2.61603 | 36920 ft | 488 kts | 237° |
| 2026-05-05 11:23 | 47.26670 | -2.70073 | 36924 ft | 488 kts | 237° |
| 2026-05-05 11:24 | 47.23072 | -2.78550 | 36925 ft | 488 kts | 236° |
| 2026-05-05 11:24 | 47.19472 | -2.87006 | 36930 ft | 488 kts | 236° |
| 2026-05-05 11:25 | 47.16017 | -2.95520 | 36935 ft | 490 kts | 243° |
| 2026-05-05 11:25 | 47.14049 | -3.05173 | 37251 ft | 492 kts | 263° |
| 2026-05-05 11:25 | 47.13813 | -3.10174 | 37461 ft | 492 kts | 267° |
| 2026-05-05 11:26 | 47.13742 | -3.13500 | 37605 ft | 491 kts | 268° |
| 2026-05-05 11:26 | 47.13688 | -3.20145 | 37868 ft | 490 kts | 269° |
| 2026-05-05 11:26 | 47.13677 | -3.25138 | 38093 ft | 489 kts | 269° |
| 2026-05-05 11:26 | 47.13665 | -3.30130 | 38283 ft | 488 kts | 269° |
| 2026-05-05 11:27 | 47.13643 | -3.35120 | 38421 ft | 489 kts | 269° |
| 2026-05-05 11:27 | 47.13609 | -3.40128 | 38540 ft | 489 kts | 269° |
| 2026-05-05 11:27 | 47.13581 | -3.43518 | 38620 ft | 489 kts | 269° |
| 2026-05-05 11:27 | 47.13517 | -3.50113 | 38815 ft | 488 kts | 269° |
| 2026-05-05 11:28 | 47.13463 | -3.55096 | 38921 ft | 488 kts | 269° |
| 2026-05-05 11:28 | 47.13347 | -3.65109 | 38948 ft | 492 kts | 269° |
| 2026-05-05 11:29 | 47.13224 | -3.75167 | 38949 ft | 493 kts | 269° |
| 2026-05-05 11:29 | 47.13092 | -3.85234 | 38960 ft | 493 kts | 269° |
| 2026-05-05 11:30 | 47.12953 | -3.95313 | 38950 ft | 493 kts | 269° |
| 2026-05-05 11:30 | 47.12804 | -4.05382 | 38967 ft | 493 kts | 269° |
| 2026-05-05 11:31 | 47.12647 | -4.15444 | 38960 ft | 493 kts | 269° |
| 2026-05-05 11:31 | 47.12480 | -4.25516 | 38957 ft | 494 kts | 269° |
| 2026-05-05 11:32 | 47.12305 | -4.35594 | 38972 ft | 494 kts | 269° |
| 2026-05-05 11:32 | 47.12153 | -4.43964 | 38962 ft | 494 kts | 269° |
| 2026-05-05 11:33 | 47.11929 | -4.55683 | 38965 ft | 494 kts | 269° |
| 2026-05-05 11:33 | 47.11726 | -4.65817 | 38965 ft | 494 kts | 269° |
| 2026-05-05 11:34 | 47.11517 | -4.75836 | 38972 ft | 494 kts | 268° |
| 2026-05-05 11:34 | 47.11297 | -4.85911 | 38974 ft | 494 kts | 269° |
| 2026-05-05 11:35 | 47.11069 | -4.95974 | 38984 ft | 494 kts | 269° |
| 2026-05-05 11:35 | 47.10832 | -5.06046 | 38978 ft | 494 kts | 268° |
| 2026-05-05 11:36 | 47.10586 | -5.16116 | 38984 ft | 494 kts | 269° |
| 2026-05-05 11:36 | 47.10374 | -5.24554 | 38984 ft | 494 kts | 268° |
| 2026-05-05 11:37 | 47.10068 | -5.36252 | 38985 ft | 494 kts | 268° |
| 2026-05-05 11:37 | 47.09796 | -5.46332 | 38989 ft | 494 kts | 269° |
| 2026-05-05 11:38 | 47.09515 | -5.56390 | 38987 ft | 494 kts | 269° |
| 2026-05-05 11:38 | 47.09224 | -5.66468 | 38995 ft | 494 kts | 268° |
| 2026-05-05 11:39 | 47.08926 | -5.76533 | 38997 ft | 494 kts | 268° |
| 2026-05-05 11:39 | 47.08618 | -5.86595 | 38995 ft | 493 kts | 269° |
| 2026-05-05 11:40 | 47.08303 | -5.96584 | 38998 ft | 493 kts | 268° |
| 2026-05-05 11:40 | 47.07977 | -6.06638 | 39009 ft | 493 kts | 268° |
| 2026-05-05 11:41 | 47.07644 | -6.16686 | 39015 ft | 493 kts | 269° |
| 2026-05-05 11:41 | 47.07303 | -6.26734 | 39009 ft | 493 kts | 268° |
| 2026-05-05 11:42 | 47.07011 | -6.35085 | 39008 ft | 493 kts | 269° |
| 2026-05-05 11:42 | 47.06653 | -6.45128 | 39010 ft | 493 kts | 268° |
| 2026-05-05 11:43 | 47.06285 | -6.55170 | 39022 ft | 493 kts | 268° |
| 2026-05-05 11:43 | 47.05909 | -6.65208 | 39017 ft | 493 kts | 268° |
| 2026-05-05 11:44 | 47.05525 | -6.75235 | 39026 ft | 492 kts | 268° |
| 2026-05-05 11:44 | 47.05132 | -6.85256 | 39025 ft | 492 kts | 268° |
| 2026-05-05 11:45 | 47.04729 | -6.95286 | 39032 ft | 492 kts | 268° |
| 2026-05-05 11:45 | 47.04320 | -7.05288 | 39030 ft | 492 kts | 268° |
| 2026-05-05 11:46 | 47.03902 | -7.15286 | 39034 ft | 491 kts | 268° |
| 2026-05-05 11:46 | 47.03475 | -7.25289 | 39040 ft | 491 kts | 268° |
| 2026-05-05 11:47 | 47.03039 | -7.35279 | 39039 ft | 491 kts | 268° |
| 2026-05-05 11:47 | 47.02595 | -7.45267 | 39041 ft | 491 kts | 268° |
| 2026-05-05 11:48 | 47.01917 | -7.60152 | 39045 ft | 490 kts | 268° |
| 2026-05-05 11:48 | 47.01452 | -7.70111 | 39045 ft | 490 kts | 268° |
| 2026-05-05 11:49 | 47.00979 | -7.80070 | 39048 ft | 490 kts | 268° |
| 2026-05-05 11:49 | 47.00497 | -7.90017 | 39053 ft | 489 kts | 268° |
| 2026-05-05 11:50 | 47.00008 | -7.99943 | 39053 ft | 488 kts | 268° |
| 2026-05-05 11:50 | 46.99813 | -8.09856 | 39056 ft | 487 kts | 272° |
| 2026-05-05 11:51 | 46.99949 | -8.19770 | 39056 ft | 487 kts | 273° |
| 2026-05-05 11:51 | 47.00049 | -8.29683 | 39057 ft | 486 kts | 272° |
| 2026-05-05 11:52 | 47.00075 | -8.39583 | 39056 ft | 486 kts | 272° |
| 2026-05-05 11:52 | 47.00067 | -8.49489 | 39058 ft | 486 kts | 272° |
| 2026-05-05 11:53 | 47.00048 | -8.59329 | 39069 ft | 486 kts | 272° |
| 2026-05-05 11:53 | 47.00000 | -8.69226 | 39060 ft | 486 kts | 269° |
| 2026-05-05 11:54 | 46.98780 | -8.78970 | 39074 ft | 491 kts | 252° |
| 2026-05-05 11:54 | 46.96324 | -8.88314 | 39072 ft | 492 kts | 250° |
| 2026-05-05 11:55 | 46.93665 | -8.97560 | 39077 ft | 493 kts | 249° |
| 2026-05-05 11:55 | 46.90991 | -9.06789 | 39075 ft | 492 kts | 249° |
| 2026-05-05 11:56 | 46.88334 | -9.16019 | 39078 ft | 492 kts | 249° |
| 2026-05-05 11:56 | 46.85686 | -9.25233 | 39085 ft | 492 kts | 249° |
| 2026-05-05 11:57 | 46.83033 | -9.34439 | 39080 ft | 492 kts | 249° |
| 2026-05-05 11:57 | 46.80372 | -9.43634 | 39076 ft | 491 kts | 249° |
| 2026-05-05 11:58 | 46.77723 | -9.52752 | 39087 ft | 490 kts | 249° |
| 2026-05-05 11:58 | 46.75052 | -9.61910 | 39089 ft | 490 kts | 249° |
| 2026-05-05 11:59 | 46.72377 | -9.71048 | 39089 ft | 490 kts | 249° |
| 2026-05-05 11:59 | 46.69694 | -9.80178 | 39092 ft | 490 kts | 249° |
| 2026-05-05 12:00 | 46.67007 | -9.89288 | 39099 ft | 489 kts | 249° |
| 2026-05-05 12:00 | 46.64315 | -9.98382 | 39102 ft | 489 kts | 249° |
| 2026-05-05 12:01 | 46.61617 | -10.07465 | 39100 ft | 489 kts | 249° |
| 2026-05-05 12:01 | 46.58912 | -10.16539 | 39092 ft | 489 kts | 249° |
| 2026-05-05 12:02 | 46.56218 | -10.25541 | 39110 ft | 488 kts | 249° |
| 2026-05-05 12:02 | 46.53505 | -10.34572 | 39110 ft | 488 kts | 249° |
| 2026-05-05 12:03 | 46.50786 | -10.43593 | 39113 ft | 488 kts | 249° |
| 2026-05-05 12:03 | 46.48060 | -10.52605 | 39101 ft | 488 kts | 249° |
| 2026-05-05 12:04 | 46.45325 | -10.61612 | 39120 ft | 487 kts | 249° |
| 2026-05-05 12:04 | 46.42587 | -10.70600 | 39127 ft | 487 kts | 249° |
| 2026-05-05 12:05 | 46.39844 | -10.79568 | 39128 ft | 487 kts | 249° |
| 2026-05-05 12:05 | 46.37110 | -10.88478 | 39115 ft | 487 kts | 249° |
| 2026-05-05 12:06 | 46.34356 | -10.97422 | 39133 ft | 487 kts | 249° |
| 2026-05-05 12:06 | 46.31588 | -11.06378 | 39134 ft | 487 kts | 249° |
| 2026-05-05 12:07 | 46.28816 | -11.15315 | 39138 ft | 487 kts | 249° |
| 2026-05-05 12:07 | 46.26037 | -11.24244 | 39140 ft | 487 kts | 249° |
| 2026-05-05 12:08 | 46.23252 | -11.33163 | 39143 ft | 487 kts | 248° |
| 2026-05-05 12:08 | 46.20459 | -11.42071 | 39149 ft | 487 kts | 248° |
| 2026-05-05 12:09 | 46.17660 | -11.50970 | 39148 ft | 487 kts | 248° |
| 2026-05-05 12:09 | 46.14852 | -11.59868 | 39154 ft | 487 kts | 248° |
| 2026-05-05 12:10 | 46.12037 | -11.68755 | 39158 ft | 486 kts | 248° |
| 2026-05-05 12:10 | 46.09240 | -11.77554 | 39144 ft | 486 kts | 248° |
| 2026-05-05 12:11 | 46.06419 | -11.86402 | 39165 ft | 486 kts | 248° |
| 2026-05-05 12:11 | 46.03587 | -11.95250 | 39150 ft | 486 kts | 248° |
| 2026-05-05 12:12 | 46.00755 | -12.04069 | 39163 ft | 486 kts | 248° |
| 2026-05-05 12:12 | 45.97915 | -12.12884 | 39163 ft | 486 kts | 248° |
| 2026-05-05 12:13 | 45.95066 | -12.21698 | 39161 ft | 486 kts | 248° |
| 2026-05-05 12:13 | 45.92212 | -12.30494 | 39165 ft | 486 kts | 248° |
| 2026-05-05 12:14 | 45.89352 | -12.39281 | 39175 ft | 486 kts | 248° |
| 2026-05-05 12:14 | 45.86486 | -12.48056 | 39175 ft | 485 kts | 248° |
| 2026-05-05 12:15 | 45.83615 | -12.56816 | 39179 ft | 485 kts | 247° |
| 2026-05-05 12:15 | 45.80738 | -12.65565 | 39181 ft | 485 kts | 247° |
| 2026-05-05 12:16 | 45.77852 | -12.74311 | 39184 ft | 485 kts | 247° |
| 2026-05-05 12:16 | 45.74962 | -12.83043 | 39187 ft | 485 kts | 247° |
| 2026-05-05 12:17 | 45.72068 | -12.91757 | 39186 ft | 485 kts | 247° |
| 2026-05-05 12:17 | 45.69164 | -13.00470 | 39194 ft | 485 kts | 247° |
| 2026-05-05 12:18 | 45.66273 | -13.09117 | 39191 ft | 485 kts | 247° |
| 2026-05-05 12:18 | 45.63831 | -13.16401 | 39195 ft | 485 kts | 247° |
| 2026-05-05 12:19 | 45.61896 | -13.22155 | 39195 ft | 485 kts | 247° |
| 2026-05-05 12:20 | 45.54501 | -13.44037 | 39200 ft | 483 kts | 247° |
| 2026-05-05 12:20 | 45.51567 | -13.52668 | 39204 ft | 483 kts | 247° |
| 2026-05-05 12:21 | 45.48633 | -13.61272 | 39203 ft | 483 kts | 247° |
| 2026-05-05 12:21 | 45.46186 | -13.68428 | 39209 ft | 483 kts | 246° |
| 2026-05-05 12:22 | 45.43237 | -13.77024 | 39204 ft | 483 kts | 246° |
| 2026-05-05 12:22 | 45.40284 | -13.85604 | 39207 ft | 482 kts | 246° |
| 2026-05-05 12:23 | 45.37326 | -13.94173 | 39212 ft | 482 kts | 246° |
| 2026-05-05 12:23 | 45.34361 | -14.02732 | 39216 ft | 482 kts | 246° |
| 2026-05-05 12:24 | 45.31391 | -14.11281 | 39219 ft | 482 kts | 246° |
| 2026-05-05 12:24 | 45.28418 | -14.19808 | 39222 ft | 482 kts | 246° |
| 2026-05-05 12:25 | 45.25440 | -14.28324 | 39234 ft | 481 kts | 246° |
| 2026-05-05 12:25 | 45.22455 | -14.36834 | 39231 ft | 481 kts | 246° |
| 2026-05-05 12:26 | 45.19461 | -14.45343 | 39225 ft | 481 kts | 246° |
| 2026-05-05 12:26 | 45.16466 | -14.53826 | 39229 ft | 481 kts | 246° |
| 2026-05-05 12:27 | 45.13484 | -14.62245 | 39233 ft | 481 kts | 246° |
| 2026-05-05 12:27 | 45.10474 | -14.70718 | 39233 ft | 481 kts | 246° |
| 2026-05-05 12:28 | 45.07463 | -14.79169 | 39233 ft | 481 kts | 246° |
| 2026-05-05 12:28 | 45.04438 | -14.87631 | 39240 ft | 481 kts | 246° |
| 2026-05-05 12:29 | 45.01412 | -14.96070 | 39237 ft | 481 kts | 246° |
| 2026-05-05 12:29 | 44.97985 | -15.04223 | 39241 ft | 484 kts | 239° |
| 2026-05-05 12:30 | 44.94256 | -15.12138 | 39244 ft | 484 kts | 239° |
| 2026-05-05 12:30 | 44.90480 | -15.20007 | 39246 ft | 484 kts | 239° |
| 2026-05-05 12:31 | 44.86701 | -15.27868 | 39250 ft | 484 kts | 239° |
| 2026-05-05 12:31 | 44.82924 | -15.35725 | 39248 ft | 484 kts | 239° |
| 2026-05-05 12:32 | 44.79168 | -15.43525 | 39249 ft | 484 kts | 239° |
| 2026-05-05 12:32 | 44.75361 | -15.51409 | 39247 ft | 484 kts | 239° |
| 2026-05-05 12:33 | 44.71596 | -15.59188 | 39248 ft | 484 kts | 239° |
| 2026-05-05 12:33 | 44.67799 | -15.67010 | 39247 ft | 484 kts | 238° |
| 2026-05-05 12:34 | 44.63994 | -15.74824 | 39260 ft | 484 kts | 238° |
| 2026-05-05 12:34 | 44.60195 | -15.82607 | 39255 ft | 484 kts | 238° |
| 2026-05-05 12:35 | 44.56387 | -15.90389 | 39256 ft | 484 kts | 238° |
| 2026-05-05 12:35 | 44.52567 | -15.98172 | 39263 ft | 484 kts | 238° |
| 2026-05-05 12:36 | 44.48745 | -16.05939 | 39265 ft | 484 kts | 238° |
| 2026-05-05 12:36 | 44.44938 | -16.13655 | 39265 ft | 484 kts | 238° |
| 2026-05-05 12:37 | 44.41109 | -16.21394 | 39261 ft | 484 kts | 238° |
| 2026-05-05 12:37 | 44.37273 | -16.29128 | 39259 ft | 484 kts | 238° |
| 2026-05-05 12:38 | 44.33430 | -16.36852 | 39271 ft | 484 kts | 238° |
| 2026-05-05 12:38 | 44.29581 | -16.44571 | 39270 ft | 484 kts | 238° |
| 2026-05-05 12:39 | 44.25726 | -16.52281 | 39276 ft | 484 kts | 238° |
| 2026-05-05 12:39 | 44.21865 | -16.59982 | 39269 ft | 484 kts | 238° |
| 2026-05-05 12:40 | 44.17997 | -16.67676 | 39281 ft | 485 kts | 238° |
| 2026-05-05 12:40 | 44.14120 | -16.75369 | 39279 ft | 485 kts | 238° |
| 2026-05-05 12:41 | 44.10245 | -16.83038 | 39284 ft | 485 kts | 238° |
| 2026-05-05 12:41 | 44.06383 | -16.90659 | 39275 ft | 485 kts | 238° |
| 2026-05-05 12:42 | 44.02489 | -16.98324 | 39288 ft | 485 kts | 238° |
| 2026-05-05 12:42 | 43.98591 | -17.05976 | 39288 ft | 485 kts | 238° |
| 2026-05-05 12:43 | 43.94691 | -17.13614 | 39288 ft | 485 kts | 238° |
| 2026-05-05 12:43 | 43.90784 | -17.21244 | 39289 ft | 485 kts | 238° |
| 2026-05-05 12:44 | 43.86867 | -17.28874 | 39293 ft | 485 kts | 238° |
| 2026-05-05 12:44 | 43.82952 | -17.36480 | 39295 ft | 486 kts | 238° |
| 2026-05-05 12:45 | 43.79025 | -17.44091 | 39300 ft | 486 kts | 238° |
| 2026-05-05 12:45 | 43.75092 | -17.51692 | 39301 ft | 486 kts | 238° |
| 2026-05-05 12:46 | 43.71153 | -17.59284 | 39303 ft | 486 kts | 238° |
| 2026-05-05 12:46 | 43.67213 | -17.66860 | 39306 ft | 486 kts | 238° |
| 2026-05-05 12:47 | 43.63266 | -17.74431 | 39306 ft | 486 kts | 238° |
| 2026-05-05 12:47 | 43.59332 | -17.81956 | 39309 ft | 486 kts | 238° |
| 2026-05-05 12:48 | 43.55368 | -17.89520 | 39314 ft | 487 kts | 238° |
| 2026-05-05 12:48 | 43.51393 | -17.97084 | 39329 ft | 487 kts | 238° |
| 2026-05-05 12:49 | 43.47413 | -18.04640 | 39321 ft | 487 kts | 238° |
| 2026-05-05 12:49 | 43.43429 | -18.12180 | 39318 ft | 487 kts | 238° |
| 2026-05-05 12:50 | 43.39434 | -18.19725 | 39322 ft | 488 kts | 238° |
| 2026-05-05 12:50 | 43.35437 | -18.27255 | 39321 ft | 488 kts | 238° |
| 2026-05-05 12:51 | 43.31425 | -18.34793 | 39316 ft | 488 kts | 238° |
| 2026-05-05 12:51 | 43.27413 | -18.42312 | 39321 ft | 488 kts | 238° |
| 2026-05-05 12:52 | 43.23393 | -18.49826 | 39320 ft | 489 kts | 238° |
| 2026-05-05 12:52 | 43.20048 | -18.56064 | 39326 ft | 489 kts | 238° |
| 2026-05-05 12:53 | 43.15356 | -18.64793 | 39322 ft | 489 kts | 238° |
| 2026-05-05 12:53 | 43.11315 | -18.72290 | 39327 ft | 489 kts | 238° |
| 2026-05-05 12:54 | 43.05240 | -18.83525 | 39330 ft | 489 kts | 238° |
| 2026-05-05 12:55 | 43.01190 | -18.90990 | 39326 ft | 489 kts | 238° |
| 2026-05-05 12:55 | 42.97129 | -18.98459 | 39327 ft | 490 kts | 237° |
| 2026-05-05 12:56 | 42.93061 | -19.05920 | 39334 ft | 490 kts | 237° |
| 2026-05-05 12:56 | 42.88988 | -19.13372 | 39320 ft | 490 kts | 238° |
| 2026-05-05 12:57 | 42.84903 | -19.20828 | 39338 ft | 491 kts | 238° |
| 2026-05-05 12:57 | 42.81503 | -19.27019 | 39344 ft | 491 kts | 237° |
| 2026-05-05 12:58 | 42.76708 | -19.35728 | 39343 ft | 491 kts | 237° |
| 2026-05-05 12:58 | 42.72629 | -19.43116 | 39346 ft | 492 kts | 237° |
| 2026-05-05 12:59 | 42.68519 | -19.50542 | 39342 ft | 493 kts | 238° |
| 2026-05-05 12:59 | 42.64381 | -19.58001 | 39348 ft | 494 kts | 237° |
| 2026-05-05 13:00 | 42.58168 | -19.69163 | 39345 ft | 494 kts | 237° |
| 2026-05-05 13:01 | 42.49861 | -19.84024 | 39348 ft | 495 kts | 238° |
| 2026-05-05 13:01 | 42.45682 | -19.91474 | 39346 ft | 496 kts | 238° |
| 2026-05-05 13:02 | 42.41493 | -19.98922 | 39350 ft | 497 kts | 238° |
| 2026-05-05 13:02 | 42.37297 | -20.06364 | 39355 ft | 497 kts | 237° |
| 2026-05-05 13:03 | 42.33095 | -20.13796 | 39343 ft | 497 kts | 237° |
| 2026-05-05 13:03 | 42.28911 | -20.21179 | 39359 ft | 499 kts | 238° |
| 2026-05-05 13:04 | 42.24682 | -20.28625 | 39360 ft | 499 kts | 238° |
| 2026-05-05 13:04 | 42.20449 | -20.36057 | 39363 ft | 499 kts | 238° |
| 2026-05-05 13:05 | 42.16212 | -20.43480 | 39358 ft | 500 kts | 237° |
| 2026-05-05 13:05 | 42.11963 | -20.50905 | 39365 ft | 501 kts | 238° |
| 2026-05-05 13:06 | 42.07692 | -20.58350 | 39368 ft | 503 kts | 238° |
| 2026-05-05 13:06 | 42.03437 | -20.65748 | 39371 ft | 503 kts | 238° |
| 2026-05-05 13:07 | 41.99149 | -20.73184 | 39365 ft | 503 kts | 238° |
| 2026-05-05 13:07 | 41.94853 | -20.80616 | 39369 ft | 503 kts | 238° |
| 2026-05-05 13:08 | 41.90545 | -20.88051 | 39373 ft | 505 kts | 238° |
| 2026-05-05 13:08 | 41.86220 | -20.95499 | 39373 ft | 506 kts | 238° |
| 2026-05-05 13:09 | 41.81887 | -21.02941 | 39372 ft | 506 kts | 238° |
| 2026-05-05 13:09 | 41.77548 | -21.10373 | 39374 ft | 506 kts | 238° |
| 2026-05-05 13:10 | 41.73199 | -21.17806 | 39367 ft | 507 kts | 238° |
| 2026-05-05 13:10 | 41.68835 | -21.25245 | 39377 ft | 508 kts | 238° |
| 2026-05-05 13:11 | 41.64497 | -21.32623 | 39381 ft | 508 kts | 238° |
| 2026-05-05 13:11 | 41.60122 | -21.40046 | 39381 ft | 508 kts | 238° |
| 2026-05-05 13:12 | 41.56478 | -21.46214 | 39383 ft | 509 kts | 238° |
| 2026-05-05 13:12 | 41.51345 | -21.54881 | 39385 ft | 510 kts | 238° |
| 2026-05-05 13:13 | 41.46945 | -21.62292 | 39384 ft | 510 kts | 238° |
| 2026-05-05 13:13 | 41.43279 | -21.68451 | 39387 ft | 510 kts | 238° |
| 2026-05-05 13:14 | 41.38871 | -21.75841 | 39385 ft | 510 kts | 238° |
| 2026-05-05 13:14 | 41.34453 | -21.83230 | 39375 ft | 510 kts | 238° |
| 2026-05-05 13:15 | 41.30031 | -21.90609 | 39387 ft | 510 kts | 238° |
| 2026-05-05 13:15 | 41.25598 | -21.97990 | 39387 ft | 511 kts | 238° |
| 2026-05-05 13:16 | 41.21159 | -22.05363 | 39384 ft | 511 kts | 238° |
| 2026-05-05 13:16 | 41.16711 | -22.12730 | 39384 ft | 511 kts | 238° |
| 2026-05-05 13:17 | 41.12287 | -22.20039 | 39387 ft | 511 kts | 238° |
| 2026-05-05 13:17 | 41.07831 | -22.27385 | 39387 ft | 511 kts | 238° |
| 2026-05-05 13:18 | 41.03365 | -22.34729 | 39389 ft | 511 kts | 238° |
| 2026-05-05 13:18 | 40.98899 | -22.42057 | 39389 ft | 511 kts | 238° |
| 2026-05-05 13:19 | 40.94419 | -22.49389 | 39385 ft | 512 kts | 238° |
| 2026-05-05 13:19 | 40.89937 | -22.56706 | 39384 ft | 512 kts | 238° |
| 2026-05-05 13:20 | 40.85451 | -22.64011 | 39389 ft | 512 kts | 238° |
| 2026-05-05 13:20 | 40.80967 | -22.71298 | 39389 ft | 512 kts | 238° |
| 2026-05-05 13:21 | 40.76473 | -22.78584 | 39369 ft | 512 kts | 238° |
| 2026-05-05 13:21 | 40.72007 | -22.85807 | 39391 ft | 511 kts | 238° |
| 2026-05-05 13:22 | 40.67510 | -22.93062 | 39386 ft | 511 kts | 237° |
| 2026-05-05 13:22 | 40.63006 | -23.00316 | 39391 ft | 512 kts | 237° |
| 2026-05-05 13:23 | 40.58493 | -23.07564 | 39387 ft | 512 kts | 237° |
| 2026-05-05 13:23 | 40.53967 | -23.14813 | 39388 ft | 512 kts | 237° |
| 2026-05-05 13:24 | 40.49451 | -23.22028 | 39391 ft | 511 kts | 237° |
| 2026-05-05 13:24 | 40.44937 | -23.29229 | 39390 ft | 510 kts | 237° |
| 2026-05-05 13:25 | 40.40418 | -23.36419 | 39393 ft | 511 kts | 237° |
| 2026-05-05 13:25 | 40.35899 | -23.43593 | 39369 ft | 510 kts | 237° |
| 2026-05-05 13:26 | 40.31374 | -23.50758 | 39392 ft | 510 kts | 237° |
| 2026-05-05 13:26 | 40.26850 | -23.57905 | 39393 ft | 509 kts | 237° |
| 2026-05-05 13:27 | 40.22321 | -23.65045 | 39389 ft | 509 kts | 237° |
| 2026-05-05 13:27 | 40.17786 | -23.72178 | 39389 ft | 509 kts | 237° |
| 2026-05-05 13:28 | 40.13252 | -23.79291 | 39390 ft | 509 kts | 237° |
| 2026-05-05 13:28 | 40.08727 | -23.86373 | 39393 ft | 507 kts | 237° |
| 2026-05-05 13:29 | 40.04228 | -23.93401 | 39391 ft | 508 kts | 237° |
| 2026-05-05 13:29 | 39.99686 | -24.00483 | 39530 ft | 509 kts | 237° |
| 2026-05-05 13:30 | 39.97333 | -24.03942 | 39725 ft | 511 kts | 233° |
| 2026-05-05 13:30 | 39.94852 | -24.07252 | 39847 ft | 512 kts | 231° |
| 2026-05-05 13:30 | 39.92308 | -24.10504 | 40035 ft | 510 kts | 230° |
| 2026-05-05 13:30 | 39.89768 | -24.13726 | 40197 ft | 509 kts | 230° |
| 2026-05-05 13:31 | 39.87241 | -24.16955 | 40317 ft | 509 kts | 231° |
| 2026-05-05 13:31 | 39.84733 | -24.20197 | 40388 ft | 510 kts | 231° |
| 2026-05-05 13:31 | 39.79729 | -24.26741 | 40393 ft | 510 kts | 231° |
| 2026-05-05 13:32 | 39.74735 | -24.33304 | 40389 ft | 510 kts | 231° |
| 2026-05-05 13:32 | 39.69741 | -24.39857 | 40372 ft | 511 kts | 231° |
| 2026-05-05 13:33 | 39.64736 | -24.46403 | 40389 ft | 510 kts | 231° |
| 2026-05-05 13:33 | 39.59727 | -24.52937 | 40389 ft | 510 kts | 231° |
| 2026-05-05 13:34 | 39.54721 | -24.59454 | 40389 ft | 510 kts | 231° |
| 2026-05-05 13:34 | 39.49707 | -24.65966 | 40392 ft | 510 kts | 231° |
| 2026-05-05 13:35 | 39.44716 | -24.72436 | 40389 ft | 511 kts | 231° |
| 2026-05-05 13:35 | 39.39689 | -24.78937 | 40389 ft | 511 kts | 231° |
| 2026-05-05 13:36 | 39.34658 | -24.85429 | 40390 ft | 511 kts | 231° |
| 2026-05-05 13:36 | 39.29623 | -24.91912 | 40390 ft | 511 kts | 231° |
| 2026-05-05 13:37 | 39.24585 | -24.98386 | 40387 ft | 511 kts | 231° |
| 2026-05-05 13:37 | 39.19544 | -25.04849 | 40377 ft | 511 kts | 231° |
| 2026-05-05 13:38 | 39.14492 | -25.11314 | 40390 ft | 512 kts | 230° |
| 2026-05-05 13:38 | 39.09425 | -25.17784 | 40387 ft | 512 kts | 230° |
| 2026-05-05 13:39 | 39.04357 | -25.24240 | 40387 ft | 513 kts | 230° |
| 2026-05-05 13:39 | 38.99291 | -25.30680 | 40384 ft | 513 kts | 230° |
| 2026-05-05 13:40 | 38.94210 | -25.37125 | 40387 ft | 513 kts | 230° |
| 2026-05-05 13:40 | 38.89136 | -25.43547 | 40378 ft | 513 kts | 230° |
| 2026-05-05 13:41 | 38.84049 | -25.49974 | 40387 ft | 513 kts | 230° |
| 2026-05-05 13:41 | 38.78987 | -25.56355 | 40387 ft | 514 kts | 230° |
| 2026-05-05 13:42 | 38.73886 | -25.62770 | 40387 ft | 514 kts | 230° |
| 2026-05-05 13:42 | 38.68778 | -25.69182 | 40389 ft | 514 kts | 230° |
| 2026-05-05 13:43 | 38.63662 | -25.75590 | 40383 ft | 515 kts | 230° |
| 2026-05-05 13:43 | 38.58536 | -25.81997 | 40390 ft | 515 kts | 230° |
| 2026-05-05 13:44 | 38.53405 | -25.88397 | 40386 ft | 516 kts | 230° |
| 2026-05-05 13:44 | 38.48261 | -25.94800 | 40387 ft | 516 kts | 230° |
| 2026-05-05 13:45 | 38.43112 | -26.01194 | 40383 ft | 518 kts | 230° |
| 2026-05-05 13:45 | 38.37980 | -26.07556 | 40389 ft | 518 kts | 230° |
| 2026-05-05 13:46 | 38.32808 | -26.13952 | 40381 ft | 518 kts | 230° |
| 2026-05-05 13:46 | 38.27633 | -26.20338 | 40376 ft | 518 kts | 230° |
| 2026-05-05 13:47 | 38.22446 | -26.26727 | 40375 ft | 518 kts | 230° |
| 2026-05-05 13:47 | 38.17245 | -26.33122 | 40382 ft | 522 kts | 230° |
| 2026-05-05 13:48 | 38.12014 | -26.39538 | 40387 ft | 523 kts | 230° |
| 2026-05-05 13:48 | 38.06780 | -26.45943 | 40387 ft | 523 kts | 230° |
| 2026-05-05 13:49 | 38.01542 | -26.52339 | 40384 ft | 523 kts | 230° |
| 2026-05-05 13:49 | 37.96299 | -26.58728 | 40376 ft | 523 kts | 230° |
| 2026-05-05 13:50 | 37.91066 | -26.65097 | 40382 ft | 527 kts | 230° |
| 2026-05-05 13:50 | 37.85771 | -26.71524 | 40381 ft | 527 kts | 230° |
| 2026-05-05 13:51 | 37.80471 | -26.77942 | 40381 ft | 527 kts | 230° |
| 2026-05-05 13:51 | 37.75167 | -26.84352 | 40381 ft | 527 kts | 230° |
| 2026-05-05 13:52 | 37.69854 | -26.90759 | 40382 ft | 529 kts | 230° |
| 2026-05-05 13:52 | 37.64503 | -26.97204 | 40381 ft | 533 kts | 230° |
| 2026-05-05 13:53 | 37.59132 | -27.03653 | 40382 ft | 533 kts | 230° |
| 2026-05-05 13:53 | 37.53760 | -27.10088 | 40381 ft | 533 kts | 230° |
| 2026-05-05 13:54 | 37.48386 | -27.16514 | 40381 ft | 533 kts | 230° |
| 2026-05-05 13:54 | 37.43002 | -27.22942 | 40382 ft | 535 kts | 230° |
| 2026-05-05 13:55 | 37.37590 | -27.29392 | 40381 ft | 537 kts | 230° |
| 2026-05-05 13:55 | 37.32163 | -27.35841 | 40381 ft | 537 kts | 230° |
| 2026-05-05 13:56 | 37.26732 | -27.42281 | 40381 ft | 537 kts | 230° |
| 2026-05-05 13:56 | 37.21297 | -27.48713 | 40365 ft | 537 kts | 230° |
| 2026-05-05 13:57 | 37.15852 | -27.55145 | 40378 ft | 538 kts | 230° |
| 2026-05-05 13:57 | 37.10398 | -27.61574 | 40381 ft | 538 kts | 230° |
| 2026-05-05 13:58 | 37.04968 | -27.67963 | 40380 ft | 539 kts | 230° |
| 2026-05-05 13:58 | 36.99494 | -27.74389 | 40381 ft | 540 kts | 230° |
| 2026-05-05 13:59 | 36.92195 | -27.82935 | 40376 ft | 540 kts | 230° |
| 2026-05-05 14:00 | 36.83968 | -27.92540 | 40375 ft | 540 kts | 229° |
| 2026-05-05 14:00 | 36.78486 | -27.98925 | 40377 ft | 539 kts | 229° |
| 2026-05-05 14:01 | 36.72992 | -28.05312 | 40374 ft | 541 kts | 229° |
| 2026-05-05 14:01 | 36.67485 | -28.11699 | 40387 ft | 541 kts | 229° |
| 2026-05-05 14:02 | 36.61987 | -28.18061 | 40368 ft | 540 kts | 229° |
| 2026-05-05 14:02 | 36.56485 | -28.24416 | 40367 ft | 540 kts | 229° |
| 2026-05-05 14:03 | 36.50974 | -28.30770 | 40380 ft | 540 kts | 229° |
| 2026-05-05 14:03 | 36.45459 | -28.37115 | 40383 ft | 540 kts | 229° |
| 2026-05-05 14:04 | 36.39970 | -28.43418 | 40365 ft | 542 kts | 229° |
| 2026-05-05 14:04 | 36.34396 | -28.49804 | 40365 ft | 542 kts | 229° |
| 2026-05-05 14:05 | 36.28891 | -28.56098 | 40385 ft | 542 kts | 229° |
| 2026-05-05 14:05 | 36.23347 | -28.62424 | 40367 ft | 542 kts | 229° |
| 2026-05-05 14:06 | 36.17799 | -28.68742 | 40363 ft | 541 kts | 229° |
| 2026-05-05 14:06 | 36.12260 | -28.75036 | 40368 ft | 541 kts | 229° |
| 2026-05-05 14:07 | 36.06712 | -28.81331 | 40367 ft | 541 kts | 229° |
| 2026-05-05 14:07 | 36.01157 | -28.87619 | 40366 ft | 542 kts | 229° |
| 2026-05-05 14:08 | 35.95598 | -28.93899 | 40362 ft | 541 kts | 228° |
| 2026-05-05 14:08 | 35.90041 | -29.00164 | 40356 ft | 540 kts | 228° |
| 2026-05-05 14:09 | 35.84539 | -29.06354 | 40361 ft | 539 kts | 228° |
| 2026-05-05 14:09 | 35.78996 | -29.12580 | 40361 ft | 540 kts | 228° |
| 2026-05-05 14:10 | 35.73443 | -29.18806 | 40362 ft | 540 kts | 228° |
| 2026-05-05 14:10 | 35.67883 | -29.25025 | 40337 ft | 540 kts | 228° |
| 2026-05-05 14:11 | 35.62326 | -29.31228 | 40358 ft | 539 kts | 228° |
| 2026-05-05 14:11 | 35.56784 | -29.37403 | 40359 ft | 538 kts | 227° |
| 2026-05-05 14:12 | 35.51235 | -29.43574 | 40358 ft | 538 kts | 227° |
| 2026-05-05 14:12 | 35.45679 | -29.49742 | 40356 ft | 539 kts | 227° |
| 2026-05-05 14:13 | 35.40120 | -29.55900 | 40362 ft | 539 kts | 227° |
| 2026-05-05 14:13 | 35.34545 | -29.62064 | 40360 ft | 539 kts | 227° |
| 2026-05-05 14:14 | 35.28971 | -29.68214 | 40361 ft | 539 kts | 227° |
| 2026-05-05 14:14 | 35.23393 | -29.74357 | 40357 ft | 539 kts | 227° |
| 2026-05-05 14:15 | 35.17848 | -29.80453 | 40352 ft | 540 kts | 227° |
| 2026-05-05 14:15 | 35.12254 | -29.86591 | 40343 ft | 541 kts | 227° |
| 2026-05-05 14:16 | 35.06658 | -29.92717 | 40347 ft | 540 kts | 227° |
| 2026-05-05 14:16 | 35.01059 | -29.98854 | 40344 ft | 539 kts | 229° |
| 2026-05-05 14:17 | 34.95857 | -30.05384 | 40346 ft | 536 kts | 232° |
| 2026-05-05 14:17 | 34.90765 | -30.12015 | 40322 ft | 535 kts | 233° |
| 2026-05-05 14:18 | 34.85686 | -30.18660 | 40348 ft | 536 kts | 233° |
| 2026-05-05 14:18 | 34.80592 | -30.25298 | 40345 ft | 536 kts | 233° |
| 2026-05-05 14:19 | 34.75486 | -30.31928 | 40342 ft | 536 kts | 233° |
| 2026-05-05 14:19 | 34.70378 | -30.38544 | 40345 ft | 536 kts | 232° |
| 2026-05-05 14:20 | 34.65268 | -30.45150 | 40339 ft | 536 kts | 232° |
| 2026-05-05 14:20 | 34.60160 | -30.51740 | 40341 ft | 535 kts | 232° |
| 2026-05-05 14:21 | 34.55051 | -30.58320 | 40340 ft | 536 kts | 232° |
| 2026-05-05 14:21 | 34.49932 | -30.64902 | 40338 ft | 537 kts | 232° |
| 2026-05-05 14:22 | 34.44834 | -30.71443 | 40333 ft | 537 kts | 232° |
| 2026-05-05 14:22 | 34.39707 | -30.78007 | 40335 ft | 536 kts | 232° |
| 2026-05-05 14:23 | 34.34582 | -30.84556 | 40339 ft | 536 kts | 232° |
| 2026-05-05 14:23 | 34.29456 | -30.91096 | 40340 ft | 536 kts | 232° |
| 2026-05-05 14:24 | 34.24326 | -30.97628 | 40310 ft | 535 kts | 232° |
| 2026-05-05 14:24 | 34.19203 | -31.04137 | 40333 ft | 533 kts | 232° |
| 2026-05-05 14:25 | 34.14092 | -31.10619 | 40333 ft | 533 kts | 232° |
| 2026-05-05 14:25 | 34.08971 | -31.17104 | 40333 ft | 533 kts | 232° |
| 2026-05-05 14:26 | 34.03852 | -31.23573 | 40333 ft | 533 kts | 232° |
| 2026-05-05 14:26 | 33.98729 | -31.30036 | 40330 ft | 533 kts | 232° |
| 2026-05-05 14:27 | 33.93608 | -31.36484 | 40331 ft | 533 kts | 232° |
| 2026-05-05 14:27 | 33.88472 | -31.42936 | 40330 ft | 533 kts | 232° |
| 2026-05-05 14:28 | 33.83377 | -31.49328 | 40327 ft | 534 kts | 232° |
| 2026-05-05 14:28 | 33.78231 | -31.55771 | 40339 ft | 534 kts | 232° |
| 2026-05-05 14:29 | 33.73077 | -31.62211 | 40329 ft | 533 kts | 232° |
| 2026-05-05 14:29 | 33.67931 | -31.68631 | 40320 ft | 533 kts | 232° |
| 2026-05-05 14:30 | 33.62777 | -31.75048 | 40318 ft | 533 kts | 232° |
| 2026-05-05 14:30 | 33.57625 | -31.81452 | 40313 ft | 533 kts | 232° |
| 2026-05-05 14:31 | 33.52469 | -31.87846 | 40321 ft | 532 kts | 231° |
| 2026-05-05 14:31 | 33.47320 | -31.94222 | 40321 ft | 533 kts | 231° |
| 2026-05-05 14:32 | 33.42192 | -32.00561 | 40321 ft | 533 kts | 231° |
| 2026-05-05 14:32 | 33.37034 | -32.06925 | 40321 ft | 533 kts | 231° |
| 2026-05-05 14:33 | 33.33583 | -32.11177 | 40311 ft | 533 kts | 231° |
| 2026-05-05 14:33 | 33.31871 | -32.13283 | 40315 ft | 532 kts | 231° |
| 2026-05-05 14:34 | 33.22039 | -32.25360 | 40314 ft | 532 kts | 231° |
| 2026-05-05 14:34 | 33.16870 | -32.31692 | 40314 ft | 532 kts | 231° |
| 2026-05-05 14:35 | 33.11698 | -32.38018 | 40303 ft | 532 kts | 231° |
| 2026-05-05 14:35 | 33.06525 | -32.44332 | 40312 ft | 532 kts | 231° |
| 2026-05-05 14:36 | 33.01357 | -32.50630 | 40305 ft | 532 kts | 231° |
| 2026-05-05 14:36 | 32.96179 | -32.56928 | 40305 ft | 532 kts | 231° |
| 2026-05-05 14:37 | 32.90994 | -32.63223 | 40296 ft | 532 kts | 230° |
| 2026-05-05 14:37 | 32.85818 | -32.69497 | 40318 ft | 532 kts | 230° |
| 2026-05-05 14:38 | 32.80632 | -32.75771 | 40312 ft | 532 kts | 230° |
| 2026-05-05 14:38 | 32.75476 | -32.81998 | 40298 ft | 532 kts | 230° |
| 2026-05-05 14:39 | 32.70281 | -32.88261 | 40295 ft | 532 kts | 230° |
| 2026-05-05 14:39 | 32.65085 | -32.94515 | 40306 ft | 532 kts | 230° |
| 2026-05-05 14:40 | 32.59889 | -33.00757 | 40301 ft | 531 kts | 230° |
| 2026-05-05 14:40 | 32.54691 | -33.06991 | 40300 ft | 531 kts | 230° |
| 2026-05-05 14:41 | 32.49488 | -33.13219 | 40303 ft | 531 kts | 230° |
| 2026-05-05 14:41 | 32.44281 | -33.19442 | 40290 ft | 531 kts | 230° |
| 2026-05-05 14:42 | 32.39087 | -33.25637 | 40300 ft | 529 kts | 230° |
| 2026-05-05 14:42 | 32.33932 | -33.31777 | 40294 ft | 529 kts | 230° |
| 2026-05-05 14:43 | 32.28741 | -33.37950 | 40295 ft | 529 kts | 230° |
| 2026-05-05 14:43 | 32.23547 | -33.44115 | 40284 ft | 529 kts | 230° |
| 2026-05-05 14:44 | 32.18380 | -33.50234 | 40294 ft | 524 kts | 230° |
| 2026-05-05 14:44 | 32.13231 | -33.56323 | 40289 ft | 524 kts | 230° |
| 2026-05-05 14:45 | 32.08084 | -33.62403 | 40292 ft | 524 kts | 230° |
| 2026-05-05 14:45 | 32.02928 | -33.68482 | 40287 ft | 524 kts | 230° |
| 2026-05-05 14:46 | 31.97778 | -33.74542 | 40285 ft | 522 kts | 230° |
| 2026-05-05 14:46 | 31.92645 | -33.80571 | 40286 ft | 521 kts | 230° |
| 2026-05-05 14:47 | 31.87516 | -33.86588 | 40284 ft | 521 kts | 230° |
| 2026-05-05 14:47 | 31.82384 | -33.92598 | 40285 ft | 521 kts | 230° |
| 2026-05-05 14:48 | 31.77249 | -33.98601 | 40285 ft | 520 kts | 230° |
| 2026-05-05 14:48 | 31.72112 | -34.04597 | 40275 ft | 520 kts | 230° |
| 2026-05-05 14:49 | 31.67007 | -34.10544 | 40282 ft | 520 kts | 230° |
| 2026-05-05 14:49 | 31.61867 | -34.16523 | 40279 ft | 520 kts | 230° |
| 2026-05-05 14:50 | 31.56719 | -34.22501 | 40262 ft | 520 kts | 230° |
| 2026-05-05 14:50 | 31.51588 | -34.28448 | 40272 ft | 518 kts | 230° |
| 2026-05-05 14:51 | 31.46467 | -34.34376 | 40287 ft | 517 kts | 230° |
| 2026-05-05 14:51 | 31.41353 | -34.40287 | 40287 ft | 517 kts | 230° |
| 2026-05-05 14:52 | 31.36224 | -34.46206 | 40268 ft | 517 kts | 230° |
| 2026-05-05 14:52 | 31.31099 | -34.52109 | 40274 ft | 517 kts | 230° |
| 2026-05-05 14:53 | 31.26007 | -34.57964 | 40277 ft | 516 kts | 230° |
| 2026-05-05 14:53 | 31.20856 | -34.63879 | 40277 ft | 516 kts | 230° |
| 2026-05-05 14:54 | 31.15764 | -34.69716 | 40271 ft | 516 kts | 229° |
| 2026-05-05 14:54 | 31.10639 | -34.75582 | 40263 ft | 516 kts | 229° |
| 2026-05-05 14:55 | 31.05513 | -34.81438 | 40271 ft | 515 kts | 229° |
| 2026-05-05 14:55 | 31.00391 | -34.87281 | 40270 ft | 515 kts | 229° |
| 2026-05-05 14:56 | 30.95271 | -34.93115 | 40270 ft | 515 kts | 229° |
| 2026-05-05 14:56 | 30.90141 | -34.98949 | 40270 ft | 515 kts | 229° |
| 2026-05-05 14:57 | 30.85024 | -35.04759 | 40268 ft | 514 kts | 229° |
| 2026-05-05 14:57 | 30.79910 | -35.10558 | 40268 ft | 513 kts | 229° |
| 2026-05-05 14:58 | 30.74795 | -35.16348 | 40265 ft | 513 kts | 229° |
| 2026-05-05 14:58 | 30.69683 | -35.22126 | 40265 ft | 513 kts | 229° |
| 2026-05-05 14:59 | 30.64564 | -35.27902 | 40262 ft | 513 kts | 229° |
| 2026-05-05 14:59 | 30.59451 | -35.33661 | 40263 ft | 512 kts | 229° |
| 2026-05-05 15:00 | 30.55207 | -35.38436 | 40265 ft | 512 kts | 229° |
| 2026-05-05 15:00 | 30.49230 | -35.45150 | 40265 ft | 512 kts | 229° |
| 2026-05-05 15:01 | 30.44141 | -35.50857 | 40244 ft | 512 kts | 229° |
| 2026-05-05 15:01 | 30.39028 | -35.56582 | 40259 ft | 511 kts | 229° |
| 2026-05-05 15:02 | 30.33917 | -35.62295 | 40254 ft | 510 kts | 229° |
| 2026-05-05 15:02 | 30.28806 | -35.68001 | 40251 ft | 511 kts | 229° |
| 2026-05-05 15:03 | 30.23690 | -35.73704 | 40260 ft | 511 kts | 228° |
| 2026-05-05 15:03 | 30.18568 | -35.79404 | 40257 ft | 510 kts | 228° |
| 2026-05-05 15:04 | 30.13465 | -35.85074 | 40259 ft | 509 kts | 228° |
| 2026-05-05 15:04 | 30.08357 | -35.90741 | 40252 ft | 509 kts | 228° |
| 2026-05-05 15:05 | 30.00662 | -35.99202 | 40250 ft | 511 kts | 225° |
| 2026-05-05 15:06 | 29.95990 | -36.03413 | 40245 ft | 513 kts | 220° |
| 2026-05-05 15:06 | 29.90251 | -36.08303 | 40251 ft | 513 kts | 220° |
| 2026-05-05 15:07 | 29.83553 | -36.13934 | 40248 ft | 513 kts | 220° |
| 2026-05-05 15:07 | 29.77794 | -36.18780 | 40247 ft | 513 kts | 220° |
| 2026-05-05 15:08 | 29.72039 | -36.23629 | 40247 ft | 513 kts | 220° |
| 2026-05-05 15:08 | 29.66291 | -36.28468 | 40235 ft | 512 kts | 220° |
| 2026-05-05 15:09 | 29.60540 | -36.33303 | 40247 ft | 511 kts | 220° |
| 2026-05-05 15:09 | 29.54805 | -36.38116 | 40246 ft | 511 kts | 220° |
| 2026-05-05 15:10 | 29.49059 | -36.42932 | 40246 ft | 511 kts | 220° |
| 2026-05-05 15:10 | 29.43319 | -36.47736 | 40244 ft | 511 kts | 220° |
| 2026-05-05 15:11 | 29.38547 | -36.51724 | 40238 ft | 511 kts | 220° |
| 2026-05-05 15:11 | 29.32844 | -36.56485 | 40236 ft | 511 kts | 219° |
| 2026-05-05 15:12 | 29.27099 | -36.61273 | 40235 ft | 510 kts | 219° |
| 2026-05-05 15:12 | 29.20427 | -36.66826 | 40235 ft | 510 kts | 219° |
| 2026-05-05 15:13 | 29.14687 | -36.71595 | 40234 ft | 510 kts | 219° |
| 2026-05-05 15:13 | 29.08942 | -36.76362 | 40230 ft | 510 kts | 219° |
| 2026-05-05 15:14 | 29.04161 | -36.80324 | 40240 ft | 509 kts | 219° |
| 2026-05-05 15:14 | 28.97460 | -36.85869 | 40235 ft | 508 kts | 219° |
| 2026-05-05 15:15 | 28.92700 | -36.89803 | 40236 ft | 508 kts | 219° |
| 2026-05-05 15:15 | 28.86982 | -36.94523 | 40230 ft | 508 kts | 219° |
| 2026-05-05 15:16 | 28.80321 | -37.00012 | 40224 ft | 508 kts | 219° |
| 2026-05-05 15:16 | 28.74595 | -37.04724 | 40230 ft | 507 kts | 219° |
| 2026-05-05 15:17 | 28.69798 | -37.08666 | 40226 ft | 507 kts | 219° |
| 2026-05-05 15:17 | 28.64120 | -37.13326 | 40228 ft | 506 kts | 219° |
| 2026-05-05 15:18 | 28.58409 | -37.18008 | 40225 ft | 506 kts | 219° |
| 2026-05-05 15:18 | 28.52699 | -37.22682 | 40224 ft | 506 kts | 219° |
| 2026-05-05 15:19 | 28.46989 | -37.27350 | 40218 ft | 505 kts | 219° |
| 2026-05-05 15:19 | 28.41279 | -37.32010 | 40221 ft | 505 kts | 219° |
| 2026-05-05 15:20 | 28.35573 | -37.36662 | 40221 ft | 504 kts | 219° |
| 2026-05-05 15:20 | 28.29877 | -37.41299 | 40218 ft | 504 kts | 219° |
| 2026-05-05 15:21 | 28.24183 | -37.45929 | 40216 ft | 503 kts | 219° |
| 2026-05-05 15:21 | 28.18488 | -37.50553 | 40227 ft | 503 kts | 219° |
| 2026-05-05 15:22 | 28.12832 | -37.55139 | 40207 ft | 503 kts | 219° |
| 2026-05-05 15:22 | 28.08060 | -37.59004 | 40222 ft | 503 kts | 219° |
| 2026-05-05 15:23 | 28.01454 | -37.64346 | 40212 ft | 501 kts | 219° |
| 2026-05-05 15:23 | 27.96729 | -37.68162 | 40214 ft | 501 kts | 219° |
| 2026-05-05 15:24 | 27.90099 | -37.73511 | 40208 ft | 501 kts | 219° |
| 2026-05-05 15:24 | 27.84425 | -37.78082 | 40207 ft | 501 kts | 218° |
| 2026-05-05 15:25 | 27.78746 | -37.82651 | 40209 ft | 501 kts | 218° |
| 2026-05-05 15:25 | 27.73070 | -37.87211 | 40201 ft | 500 kts | 218° |
| 2026-05-05 15:26 | 27.67391 | -37.91767 | 40208 ft | 500 kts | 218° |
| 2026-05-05 15:26 | 27.61720 | -37.96312 | 40201 ft | 500 kts | 218° |
| 2026-05-05 15:27 | 27.56043 | -38.00855 | 40206 ft | 501 kts | 218° |
| 2026-05-05 15:27 | 27.50399 | -38.05366 | 40205 ft | 501 kts | 218° |
| 2026-05-05 15:28 | 27.44715 | -38.09902 | 40208 ft | 501 kts | 218° |
| 2026-05-05 15:28 | 27.39031 | -38.14434 | 40206 ft | 501 kts | 218° |
| 2026-05-05 15:29 | 27.33340 | -38.18965 | 40198 ft | 501 kts | 218° |
| 2026-05-05 15:29 | 27.27644 | -38.23494 | 40206 ft | 501 kts | 218° |
| 2026-05-05 15:30 | 27.21949 | -38.28017 | 40202 ft | 501 kts | 218° |
| 2026-05-05 15:30 | 27.16251 | -38.32536 | 40203 ft | 501 kts | 218° |
| 2026-05-05 15:31 | 27.10544 | -38.37056 | 40197 ft | 501 kts | 218° |
| 2026-05-05 15:31 | 27.04840 | -38.41569 | 40200 ft | 502 kts | 218° |
| 2026-05-05 15:32 | 26.99161 | -38.46056 | 40201 ft | 503 kts | 218° |
| 2026-05-05 15:32 | 26.93441 | -38.50570 | 40197 ft | 503 kts | 218° |
| 2026-05-05 15:33 | 26.87711 | -38.55085 | 40193 ft | 503 kts | 218° |
| 2026-05-05 15:33 | 26.82958 | -38.58827 | 40200 ft | 503 kts | 218° |
| 2026-05-05 15:34 | 26.76259 | -38.64094 | 40198 ft | 503 kts | 218° |
| 2026-05-05 15:34 | 26.70521 | -38.68598 | 40191 ft | 504 kts | 218° |
| 2026-05-05 15:35 | 26.64765 | -38.73112 | 40200 ft | 506 kts | 218° |
| 2026-05-05 15:35 | 26.59000 | -38.77627 | 40192 ft | 506 kts | 218° |
| 2026-05-05 15:36 | 26.53232 | -38.82138 | 40192 ft | 506 kts | 218° |
| 2026-05-05 15:36 | 26.47463 | -38.86645 | 40193 ft | 506 kts | 218° |
| 2026-05-05 15:37 | 26.41686 | -38.91152 | 40190 ft | 507 kts | 218° |
| 2026-05-05 15:37 | 26.35903 | -38.95658 | 40196 ft | 507 kts | 218° |
| 2026-05-05 15:38 | 26.30157 | -39.00130 | 40192 ft | 507 kts | 218° |
| 2026-05-05 15:38 | 26.24364 | -39.04633 | 40191 ft | 507 kts | 218° |
| 2026-05-05 15:39 | 26.18577 | -39.09126 | 40188 ft | 507 kts | 218° |
| 2026-05-05 15:39 | 26.12780 | -39.13621 | 40181 ft | 508 kts | 218° |
| 2026-05-05 15:40 | 26.06965 | -39.18125 | 40184 ft | 510 kts | 218° |
| 2026-05-05 15:40 | 26.01135 | -39.22634 | 40186 ft | 510 kts | 218° |
| 2026-05-05 15:41 | 25.95302 | -39.27139 | 40195 ft | 510 kts | 218° |
| 2026-05-05 15:41 | 25.89468 | -39.31641 | 40188 ft | 510 kts | 218° |
| 2026-05-05 15:42 | 25.83634 | -39.36137 | 40174 ft | 510 kts | 218° |
| 2026-05-05 15:42 | 25.77822 | -39.40611 | 40180 ft | 512 kts | 218° |
| 2026-05-05 15:43 | 25.71951 | -39.45124 | 40178 ft | 513 kts | 218° |
| 2026-05-05 15:43 | 25.66078 | -39.49633 | 40178 ft | 513 kts | 218° |
| 2026-05-05 15:44 | 25.60216 | -39.54128 | 40187 ft | 513 kts | 218° |
| 2026-05-05 15:44 | 25.54346 | -39.58624 | 40191 ft | 513 kts | 218° |
| 2026-05-05 15:45 | 25.48470 | -39.63119 | 40184 ft | 514 kts | 218° |
| 2026-05-05 15:45 | 25.42585 | -39.67615 | 40184 ft | 514 kts | 218° |
| 2026-05-05 15:46 | 25.36698 | -39.72109 | 40183 ft | 514 kts | 218° |
| 2026-05-05 15:46 | 25.30808 | -39.76598 | 40182 ft | 514 kts | 218° |
| 2026-05-05 15:47 | 25.24914 | -39.81085 | 40174 ft | 514 kts | 218° |
| 2026-05-05 15:47 | 25.19053 | -39.85542 | 40180 ft | 514 kts | 218° |
| 2026-05-05 15:48 | 25.13161 | -39.90017 | 40181 ft | 514 kts | 218° |
| 2026-05-05 15:48 | 25.07256 | -39.94496 | 40178 ft | 515 kts | 218° |
| 2026-05-05 15:49 | 25.01355 | -39.98967 | 40179 ft | 514 kts | 218° |
| 2026-05-05 15:49 | 24.95537 | -40.03531 | 40170 ft | 513 kts | 221° |
| 2026-05-05 15:50 | 24.89891 | -40.08343 | 40175 ft | 512 kts | 222° |
| 2026-05-05 15:50 | 24.84256 | -40.13156 | 40179 ft | 513 kts | 222° |
| 2026-05-05 15:51 | 24.78591 | -40.17925 | 40178 ft | 513 kts | 221° |
| 2026-05-05 15:51 | 24.72899 | -40.22678 | 40178 ft | 513 kts | 221° |
| 2026-05-05 15:52 | 24.67203 | -40.27423 | 40173 ft | 513 kts | 221° |
| 2026-05-05 15:52 | 24.61507 | -40.32165 | 40176 ft | 513 kts | 221° |
| 2026-05-05 15:53 | 24.55863 | -40.36861 | 40171 ft | 513 kts | 221° |
| 2026-05-05 15:53 | 24.50165 | -40.41597 | 40176 ft | 513 kts | 221° |
| 2026-05-05 15:54 | 24.44469 | -40.46325 | 40176 ft | 513 kts | 221° |
| 2026-05-05 15:54 | 24.38772 | -40.51048 | 40175 ft | 513 kts | 221° |
| 2026-05-05 15:55 | 24.33078 | -40.55763 | 40172 ft | 513 kts | 221° |
| 2026-05-05 15:55 | 24.27385 | -40.60472 | 40176 ft | 513 kts | 221° |
| 2026-05-05 15:56 | 24.21677 | -40.65188 | 40175 ft | 513 kts | 221° |
| 2026-05-05 15:56 | 24.15982 | -40.69888 | 40163 ft | 512 kts | 221° |
| 2026-05-05 15:57 | 24.10294 | -40.74577 | 40176 ft | 512 kts | 221° |
| 2026-05-05 15:57 | 24.04640 | -40.79232 | 40176 ft | 512 kts | 221° |
| 2026-05-05 15:58 | 23.98948 | -40.83914 | 40173 ft | 512 kts | 221° |
| 2026-05-05 15:58 | 23.93254 | -40.88591 | 40173 ft | 512 kts | 221° |
| 2026-05-05 15:59 | 23.87553 | -40.93270 | 40168 ft | 512 kts | 221° |
| 2026-05-05 15:59 | 23.81860 | -40.97936 | 40173 ft | 511 kts | 221° |
| 2026-05-05 16:00 | 23.76163 | -41.02601 | 40171 ft | 511 kts | 221° |
| 2026-05-05 16:00 | 23.70476 | -41.07252 | 40173 ft | 511 kts | 221° |
| 2026-05-05 16:01 | 23.64781 | -41.11904 | 40172 ft | 511 kts | 221° |
| 2026-05-05 16:01 | 23.60046 | -41.15769 | 40170 ft | 511 kts | 221° |
| 2026-05-05 16:02 | 23.54357 | -41.20407 | 40170 ft | 511 kts | 221° |
| 2026-05-05 16:02 | 23.48658 | -41.25047 | 40170 ft | 511 kts | 221° |
| 2026-05-05 16:03 | 23.42966 | -41.29678 | 40169 ft | 511 kts | 221° |
| 2026-05-05 16:03 | 23.37267 | -41.34309 | 40170 ft | 511 kts | 220° |
| 2026-05-05 16:04 | 23.31605 | -41.38904 | 40170 ft | 510 kts | 220° |
| 2026-05-05 16:04 | 23.25915 | -41.43518 | 40166 ft | 510 kts | 220° |
| 2026-05-05 16:05 | 23.20225 | -41.48126 | 40169 ft | 510 kts | 220° |
| 2026-05-05 16:05 | 23.14535 | -41.52730 | 40170 ft | 510 kts | 220° |
| 2026-05-05 16:06 | 23.08843 | -41.57330 | 40175 ft | 510 kts | 220° |
| 2026-05-05 16:06 | 23.03151 | -41.61925 | 40173 ft | 510 kts | 220° |
| 2026-05-05 16:07 | 22.97458 | -41.66516 | 40162 ft | 510 kts | 220° |
| 2026-05-05 16:07 | 22.91771 | -41.71097 | 40164 ft | 510 kts | 220° |
| 2026-05-05 16:08 | 22.86070 | -41.75685 | 40166 ft | 510 kts | 220° |
| 2026-05-05 16:08 | 22.80373 | -41.80264 | 40168 ft | 509 kts | 220° |
| 2026-05-05 16:09 | 22.74680 | -41.84835 | 40166 ft | 509 kts | 220° |
| 2026-05-05 16:09 | 22.69024 | -41.89372 | 40164 ft | 509 kts | 220° |
| 2026-05-05 16:10 | 22.63324 | -41.93939 | 40162 ft | 509 kts | 220° |
| 2026-05-05 16:10 | 22.57629 | -41.98498 | 40166 ft | 509 kts | 220° |
| 2026-05-05 16:11 | 22.51938 | -42.03048 | 40163 ft | 508 kts | 220° |
| 2026-05-05 16:12 | 22.40561 | -42.12131 | 40165 ft | 508 kts | 220° |
| 2026-05-05 16:13 | 22.26334 | -42.23463 | 40166 ft | 508 kts | 220° |
| 2026-05-05 16:13 | 22.20644 | -42.27986 | 40162 ft | 508 kts | 220° |
| 2026-05-05 16:14 | 22.09299 | -42.36992 | 40162 ft | 508 kts | 219° |
| 2026-05-05 16:15 | 21.97919 | -42.46007 | 40173 ft | 507 kts | 219° |
| 2026-05-05 16:16 | 21.86539 | -42.55004 | 40171 ft | 507 kts | 219° |
| 2026-05-05 16:17 | 21.78002 | -42.61740 | 40161 ft | 507 kts | 219° |
| 2026-05-05 16:18 | 21.69465 | -42.68468 | 40166 ft | 507 kts | 219° |
| 2026-05-05 16:19 | 21.60926 | -42.75186 | 40157 ft | 507 kts | 219° |
| 2026-05-05 16:19 | 21.52375 | -42.81904 | 40159 ft | 507 kts | 219° |
| 2026-05-05 16:20 | 21.41020 | -42.90809 | 40158 ft | 507 kts | 219° |
| 2026-05-05 16:22 | 21.26775 | -43.01957 | 40159 ft | 507 kts | 219° |
| 2026-05-05 16:23 | 21.15374 | -43.10858 | 40160 ft | 506 kts | 219° |
| 2026-05-05 16:23 | 21.06866 | -43.17490 | 40158 ft | 506 kts | 219° |
| 2026-05-05 16:24 | 21.01167 | -43.21927 | 40160 ft | 506 kts | 219° |
| 2026-05-05 16:25 | 20.92617 | -43.28575 | 40150 ft | 506 kts | 219° |
| 2026-05-05 16:25 | 20.84060 | -43.35220 | 40159 ft | 506 kts | 219° |
| 2026-05-05 16:26 | 20.72649 | -43.44066 | 40153 ft | 506 kts | 219° |
| 2026-05-05 16:27 | 20.66945 | -43.48481 | 40149 ft | 506 kts | 218° |
| 2026-05-05 16:27 | 20.61241 | -43.52892 | 40156 ft | 506 kts | 218° |
| 2026-05-05 16:28 | 20.55530 | -43.57304 | 40155 ft | 506 kts | 218° |
| 2026-05-05 16:28 | 20.49826 | -43.61706 | 40153 ft | 506 kts | 218° |
| 2026-05-05 16:29 | 20.44122 | -43.66105 | 40154 ft | 506 kts | 218° |
| 2026-05-05 16:29 | 20.38417 | -43.70501 | 40153 ft | 506 kts | 218° |
| 2026-05-05 16:30 | 20.32711 | -43.74893 | 40151 ft | 506 kts | 218° |
| 2026-05-05 16:30 | 20.27014 | -43.79273 | 40154 ft | 505 kts | 218° |
| 2026-05-05 16:31 | 20.21344 | -43.83630 | 40147 ft | 505 kts | 218° |
| 2026-05-05 16:31 | 20.15643 | -43.88006 | 40151 ft | 505 kts | 218° |
| 2026-05-05 16:32 | 20.09949 | -43.92373 | 40146 ft | 505 kts | 218° |
| 2026-05-05 16:32 | 20.04247 | -43.96741 | 40146 ft | 505 kts | 218° |
| 2026-05-05 16:33 | 19.98327 | -44.00767 | 40150 ft | 507 kts | 208° |
| 2026-05-05 16:33 | 19.92008 | -44.04095 | 40146 ft | 507 kts | 207° |
| 2026-05-05 16:34 | 19.85632 | -44.07305 | 40149 ft | 507 kts | 207° |
| 2026-05-05 16:34 | 19.79253 | -44.10503 | 40147 ft | 507 kts | 207° |
| 2026-05-05 16:35 | 19.72881 | -44.13712 | 40146 ft | 507 kts | 207° |
| 2026-05-05 16:35 | 19.66518 | -44.16923 | 40143 ft | 506 kts | 207° |
| 2026-05-05 16:36 | 19.60161 | -44.20129 | 40146 ft | 506 kts | 207° |
| 2026-05-05 16:36 | 19.53813 | -44.23329 | 40146 ft | 506 kts | 206° |
| 2026-05-05 16:37 | 19.47459 | -44.26527 | 40140 ft | 505 kts | 206° |
| 2026-05-05 16:37 | 19.41146 | -44.29702 | 40142 ft | 505 kts | 206° |
| 2026-05-05 16:38 | 19.34806 | -44.32888 | 40142 ft | 504 kts | 206° |
| 2026-05-05 16:38 | 19.28470 | -44.36068 | 40144 ft | 504 kts | 206° |
| 2026-05-05 16:39 | 19.22134 | -44.39247 | 40143 ft | 504 kts | 206° |
| 2026-05-05 16:39 | 19.15798 | -44.42423 | 40132 ft | 504 kts | 206° |
| 2026-05-05 16:40 | 19.09476 | -44.45589 | 40135 ft | 503 kts | 206° |
| 2026-05-05 16:40 | 19.03151 | -44.48753 | 40150 ft | 502 kts | 206° |
| 2026-05-05 16:41 | 18.96828 | -44.51914 | 40138 ft | 502 kts | 206° |
| 2026-05-05 16:41 | 18.90519 | -44.55065 | 40134 ft | 502 kts | 206° |
| 2026-05-05 16:42 | 18.84198 | -44.58221 | 40133 ft | 502 kts | 206° |
| 2026-05-05 16:42 | 18.77892 | -44.61365 | 40148 ft | 501 kts | 206° |
| 2026-05-05 16:43 | 18.71631 | -44.64484 | 40134 ft | 501 kts | 206° |
| 2026-05-05 16:43 | 18.65329 | -44.67622 | 40134 ft | 501 kts | 206° |
| 2026-05-05 16:44 | 18.59027 | -44.70757 | 40136 ft | 501 kts | 206° |
| 2026-05-05 16:44 | 18.52736 | -44.73884 | 40135 ft | 500 kts | 206° |
| 2026-05-05 16:45 | 18.46437 | -44.77012 | 40131 ft | 500 kts | 206° |
| 2026-05-05 16:45 | 18.40146 | -44.80133 | 40131 ft | 500 kts | 206° |
| 2026-05-05 16:46 | 18.33857 | -44.83252 | 40132 ft | 500 kts | 205° |
| 2026-05-05 16:46 | 18.27569 | -44.86367 | 40130 ft | 499 kts | 205° |
| 2026-05-05 16:47 | 18.21295 | -44.89472 | 40128 ft | 498 kts | 205° |
| 2026-05-05 16:47 | 18.15026 | -44.92573 | 40130 ft | 498 kts | 205° |
| 2026-05-05 16:48 | 18.08758 | -44.95671 | 40129 ft | 498 kts | 205° |
| 2026-05-05 16:48 | 18.03545 | -44.98245 | 40129 ft | 498 kts | 205° |
| 2026-05-05 16:49 | 17.97292 | -45.01373 | 40128 ft | 498 kts | 207° |
| 2026-05-05 16:49 | 17.91202 | -45.04822 | 40127 ft | 497 kts | 210° |
| 2026-05-05 16:50 | 17.85148 | -45.08354 | 40125 ft | 497 kts | 209° |
| 2026-05-05 16:50 | 17.79078 | -45.11836 | 40128 ft | 497 kts | 209° |
| 2026-05-05 16:51 | 17.73005 | -45.15276 | 40128 ft | 496 kts | 208° |
| 2026-05-05 16:51 | 17.66924 | -45.18704 | 40124 ft | 496 kts | 208° |
| 2026-05-05 16:52 | 17.60843 | -45.22132 | 40121 ft | 496 kts | 208° |
| 2026-05-05 16:52 | 17.54759 | -45.25561 | 40120 ft | 496 kts | 208° |
| 2026-05-05 16:53 | 17.48679 | -45.28985 | 40125 ft | 496 kts | 208° |
| 2026-05-05 16:53 | 17.42600 | -45.32407 | 40119 ft | 496 kts | 208° |
| 2026-05-05 16:54 | 17.36521 | -45.35826 | 40118 ft | 496 kts | 208° |
| 2026-05-05 16:54 | 17.30483 | -45.39220 | 40118 ft | 495 kts | 208° |
| 2026-05-05 16:55 | 17.24411 | -45.42630 | 40119 ft | 495 kts | 208° |
| 2026-05-05 16:55 | 17.18335 | -45.46039 | 40119 ft | 496 kts | 208° |
| 2026-05-05 16:56 | 17.12261 | -45.49445 | 40116 ft | 495 kts | 208° |
| 2026-05-05 16:56 | 17.06195 | -45.52843 | 40115 ft | 494 kts | 209° |
| 2026-05-05 16:57 | 17.00132 | -45.56238 | 40116 ft | 494 kts | 208° |
| 2026-05-05 16:57 | 16.94060 | -45.59635 | 40115 ft | 495 kts | 209° |
| 2026-05-05 16:58 | 16.87997 | -45.63023 | 40113 ft | 494 kts | 209° |
| 2026-05-05 16:58 | 16.81932 | -45.66412 | 40113 ft | 494 kts | 209° |
| 2026-05-05 16:59 | 16.75881 | -45.69791 | 40110 ft | 494 kts | 209° |
| 2026-05-05 16:59 | 16.69824 | -45.73169 | 40108 ft | 493 kts | 209° |
| 2026-05-05 17:00 | 16.63780 | -45.76538 | 40111 ft | 491 kts | 209° |
| 2026-05-05 17:00 | 16.57745 | -45.79901 | 40113 ft | 492 kts | 209° |
| 2026-05-05 17:01 | 16.51700 | -45.83266 | 40108 ft | 493 kts | 209° |
| 2026-05-05 17:01 | 16.45692 | -45.86608 | 40108 ft | 492 kts | 209° |
| 2026-05-05 17:02 | 16.39665 | -45.89958 | 40101 ft | 491 kts | 209° |
| 2026-05-05 17:02 | 16.33625 | -45.93312 | 40102 ft | 492 kts | 209° |
| 2026-05-05 17:03 | 16.27598 | -45.96658 | 40104 ft | 491 kts | 209° |
| 2026-05-05 17:03 | 16.21564 | -46.00005 | 40100 ft | 492 kts | 209° |
| 2026-05-05 17:04 | 16.15519 | -46.03355 | 40097 ft | 492 kts | 209° |
| 2026-05-05 17:04 | 16.09486 | -46.06697 | 40099 ft | 492 kts | 209° |
| 2026-05-05 17:05 | 16.03446 | -46.10040 | 40100 ft | 491 kts | 209° |
| 2026-05-05 17:05 | 15.97415 | -46.13376 | 40102 ft | 491 kts | 209° |
| 2026-05-05 17:06 | 15.91386 | -46.16709 | 40104 ft | 491 kts | 209° |
| 2026-05-05 17:06 | 15.85356 | -46.20040 | 40099 ft | 492 kts | 209° |
| 2026-05-05 17:07 | 15.79317 | -46.23374 | 40099 ft | 492 kts | 209° |
| 2026-05-05 17:07 | 15.73275 | -46.26706 | 40101 ft | 492 kts | 209° |
| 2026-05-05 17:08 | 15.67233 | -46.30037 | 40100 ft | 492 kts | 209° |
| 2026-05-05 17:08 | 15.61191 | -46.33365 | 40096 ft | 491 kts | 209° |
| 2026-05-05 17:09 | 15.55204 | -46.36660 | 40092 ft | 490 kts | 209° |
| 2026-05-05 17:09 | 15.49174 | -46.39978 | 40093 ft | 490 kts | 209° |
| 2026-05-05 17:10 | 15.43140 | -46.43296 | 40101 ft | 491 kts | 209° |
| 2026-05-05 17:10 | 15.37106 | -46.46610 | 40092 ft | 490 kts | 209° |
| 2026-05-05 17:11 | 15.31104 | -46.49905 | 40088 ft | 487 kts | 209° |
| 2026-05-05 17:11 | 15.25118 | -46.53190 | 40096 ft | 487 kts | 209° |
| 2026-05-05 17:12 | 15.19140 | -46.56468 | 40092 ft | 487 kts | 209° |
| 2026-05-05 17:12 | 15.13148 | -46.59751 | 40092 ft | 486 kts | 209° |
| 2026-05-05 17:13 | 15.07194 | -46.63011 | 40089 ft | 484 kts | 209° |
| 2026-05-05 17:13 | 15.01284 | -46.66246 | 40089 ft | 483 kts | 210° |
| 2026-05-05 17:14 | 14.95335 | -46.69500 | 40089 ft | 483 kts | 209° |
| 2026-05-05 17:14 | 14.89384 | -46.72752 | 40086 ft | 482 kts | 209° |
| 2026-05-05 17:15 | 14.83473 | -46.75981 | 40086 ft | 481 kts | 210° |
| 2026-05-05 17:15 | 14.77554 | -46.79213 | 40086 ft | 480 kts | 209° |
| 2026-05-05 17:16 | 14.71641 | -46.82439 | 40090 ft | 480 kts | 209° |
| 2026-05-05 17:16 | 14.65781 | -46.85633 | 40085 ft | 478 kts | 210° |
| 2026-05-05 17:17 | 14.59914 | -46.88830 | 40083 ft | 476 kts | 209° |
| 2026-05-05 17:17 | 14.54048 | -46.92025 | 40083 ft | 476 kts | 209° |
| 2026-05-05 17:18 | 14.48183 | -46.95217 | 40086 ft | 476 kts | 210° |
| 2026-05-05 17:18 | 14.42323 | -46.98404 | 40084 ft | 474 kts | 210° |
| 2026-05-05 17:19 | 14.36490 | -47.01575 | 40083 ft | 474 kts | 210° |
| 2026-05-05 17:19 | 14.30650 | -47.04748 | 40083 ft | 474 kts | 210° |
| 2026-05-05 17:20 | 14.24818 | -47.07914 | 40086 ft | 474 kts | 210° |
| 2026-05-05 17:20 | 14.19022 | -47.11058 | 40082 ft | 472 kts | 210° |
| 2026-05-05 17:21 | 14.13227 | -47.14201 | 40083 ft | 471 kts | 210° |
| 2026-05-05 17:22 | 14.04526 | -47.18917 | 40078 ft | 471 kts | 210° |
| 2026-05-05 17:22 | 13.98717 | -47.22064 | 40081 ft | 472 kts | 210° |
| 2026-05-05 17:23 | 13.92923 | -47.25198 | 40077 ft | 469 kts | 210° |
| 2026-05-05 17:23 | 13.87152 | -47.28319 | 40077 ft | 468 kts | 210° |